Time;durP1;ratioP1;P1;durP2;ratioP2;P2;SDS_P1;SDS_P2;PMS_P1;PMS_P2;Temp;Humidity;BMP_temperature;BMP_pressure;BME280_temperature;BME280_humidity;BME280_pressure;Samples;Min_cycle;Max_cycle;Signal;HPM_P1;HPM_P2
2021/05/22 00:01:42;;;;;;;;;;;;;;;12.83;60.97;100207.56;1776598;80;20164;-64
2021/05/22 00:04:09;;;;;;;;;;;;;;;12.84;61.09;100211.89;1776940;80;20167;-63
2021/05/22 00:06:36;;;;;;;;;;;;;;;12.88;61.14;100221.64;1775017;80;21137;-63
2021/05/22 00:09:04;;;;;;;;;;;;;;;12.91;61.13;100215.28;1775317;80;20171;-62
2021/05/22 00:11:30;;;;;;;;;;;;;;;12.94;61.22;100212.61;1776605;80;20248;-63
2021/05/22 00:13:58;;;;;;;;;;;;;;;12.95;60.94;100212.38;1775902;80;20208;-63
2021/05/22 00:16:24;;;;;;;;;;;;;;;12.97;60.52;100213.52;1775735;80;20224;-62
2021/05/22 00:18:52;;;;;;;;;;;;;;;13.00;60.40;100209.00;1774476;80;21043;-62
2021/05/22 00:21:18;;;;;;;;;;;;;;;13.04;60.32;100214.71;1775695;80;20187;-62
2021/05/22 00:23:47;;;;;;;;;;;;;;;13.06;60.34;100213.42;1775652;80;20148;-62
2021/05/22 00:26:14;;;;;;;;;;;;;;;13.09;60.32;100213.48;1773563;80;20359;-64
2021/05/22 00:28:41;;;;;;;;;;;;;;;13.07;60.41;100217.76;1772754;79;20231;-62
2021/05/22 00:31:08;;;;;;;;;;;;;;;13.06;60.37;100217.46;1776710;80;21106;-65
2021/05/22 00:33:35;;;;;;;;;;;;;;;13.04;60.30;100218.20;1775032;80;20199;-67
2021/05/22 00:36:04;;;;;;;;;;;;;;;13.00;60.36;100222.45;1775488;80;20179;-70
2021/05/22 00:38:31;;;;;;;;;;;;;;;12.96;60.59;100221.28;1776727;79;20176;-70
2021/05/22 00:40:58;;;;;;;;;;;;;;;12.93;60.87;100224.45;1744063;82;20209;-72
2021/05/22 00:43:25;;;;;;;;;;;;;;;12.88;61.10;100225.67;1718542;83;21106;-68
2021/05/22 00:45:54;;;;;;;;;;;;;;;12.84;61.37;100222.66;1718286;83;20251;-69
2021/05/22 00:48:20;;;;;;;;;;;;;;;12.80;61.57;100219.60;1744027;82;20578;-69
2021/05/22 00:50:50;;;;;;;;;;;;;;;12.75;61.81;100211.95;1784416;80;20579;-69
2021/05/22 00:53:16;;;;;;;;;;;;;;;12.69;61.91;100208.86;1784207;80;20254;-71
2021/05/22 00:55:44;;;;;;;;;;;;;;;12.63;61.98;100211.96;1779554;80;20520;-69
2021/05/22 00:58:11;;;;;;;;;;;;;;;12.57;62.07;100210.22;1752009;80;20171;-69
2021/05/22 01:00:47;;;;;;;;;;;;;;;12.50;62.24;100210.36;1780018;80;20143;-70
2021/05/22 01:03:29;;;;;;;;;;;;;;;12.44;62.48;100212.64;1783289;80;20164;-71
2021/05/22 01:06:15;;;;;;;;;;;;;;;12.39;62.65;100217.89;1784092;80;20200;-70
2021/05/22 01:08:52;;;;;;;;;;;;;;;12.34;62.59;100224.50;1781101;80;21879;-71
2021/05/22 01:11:31;;;;;;;;;;;;;;;12.30;62.69;100226.02;1784125;80;20152;-71
2021/05/22 01:14:14;;;;;;;;;;;;;;;12.26;62.81;100219.77;1784563;80;20552;-70
2021/05/22 01:16:43;;;;;;;;;;;;;;;12.25;62.92;100226.18;1782477;79;20209;-70
2021/05/22 01:19:12;;;;;;;;;;;;;;;12.20;63.04;100213.95;1784588;80;20321;-70
2021/05/22 01:21:40;;;;;;;;;;;;;;;12.17;63.29;100224.36;1779142;80;21106;-71
2021/05/22 01:24:11;;;;;;;;;;;;;;;12.17;63.55;100218.98;1779073;80;20175;-70
2021/05/22 01:26:37;;;;;;;;;;;;;;;12.16;63.66;100226.24;1782661;80;20167;-71
2021/05/22 01:29:04;;;;;;;;;;;;;;;12.14;63.83;100220.80;1780546;80;20207;-69
2021/05/22 01:31:33;;;;;;;;;;;;;;;12.13;63.89;100226.70;1780098;80;20560;-70
2021/05/22 01:34:00;;;;;;;;;;;;;;;12.12;63.95;100232.28;1780316;80;21090;-69
2021/05/22 01:36:27;;;;;;;;;;;;;;;12.11;64.05;100233.35;1779013;80;20163;-70
2021/05/22 01:38:54;;;;;;;;;;;;;;;12.09;64.06;100233.05;1778189;80;20179;-71
2021/05/22 01:41:27;;;;;;;;;;;;;;;12.09;63.98;100229.55;1754518;80;20600;-70
2021/05/22 01:43:55;;;;;;;;;;;;;;;12.11;63.89;100236.05;1780177;80;20275;-68
2021/05/22 01:46:22;;;;;;;;;;;;;;;12.11;63.77;100231.47;1780519;80;21106;-69
2021/05/22 01:48:49;;;;;;;;;;;;;;;12.10;63.89;100235.20;1779697;80;20179;-68
2021/05/22 01:51:18;;;;;;;;;;;;;;;12.05;63.94;100243.16;1777637;80;20172;-68
2021/05/22 01:54:03;;;;;;;;;;;;;;;12.00;64.03;100237.13;1780195;80;20135;-68
2021/05/22 01:56:30;;;;;;;;;;;;;;;11.96;64.27;100240.52;1780801;80;20195;-69
2021/05/22 01:58:59;;;;;;;;;;;;;;;11.90;64.46;100244.91;1780832;80;20517;-67
2021/05/22 02:01:27;;;;;;;;;;;;;;;11.86;64.48;100241.03;1780171;80;20513;-68
2021/05/22 02:03:56;;;;;;;;;;;;;;;11.84;64.51;100239.92;1780375;78;20207;-70
2021/05/22 02:06:24;;;;;;;;;;;;;;;11.85;64.50;100243.41;1776554;80;20183;-70
2021/05/22 02:08:54;;;;;;;;;;;;;;;11.85;64.40;100240.73;1779292;80;20175;-70
2021/05/22 02:11:21;;;;;;;;;;;;;;;11.83;64.28;100248.21;1781023;80;21195;-70
2021/05/22 02:13:48;;;;;;;;;;;;;;;11.80;64.22;100250.02;1781275;80;20568;-70
2021/05/22 02:16:16;;;;;;;;;;;;;;;11.75;64.36;100246.14;1781194;80;20127;-69
2021/05/22 02:18:43;;;;;;;;;;;;;;;11.76;64.42;100250.98;1780962;80;20223;-69
2021/05/22 02:21:09;;;;;;;;;;;;;;;11.76;64.31;100250.98;1780659;80;20171;-69
2021/05/22 02:23:42;;;;;;;;;;;;;;;11.76;64.21;100256.34;1780123;80;21716;-69
2021/05/22 02:26:09;;;;;;;;;;;;;;;11.73;64.30;100265.70;1775370;80;20156;-69
2021/05/22 02:28:41;;;;;;;;;;;;;;;11.72;64.37;100271.30;1779734;80;20191;-69
2021/05/22 02:31:07;;;;;;;;;;;;;;;11.71;64.48;100264.28;1780729;80;20548;-68
2021/05/22 02:33:34;;;;;;;;;;;;;;;11.72;64.41;100267.27;1780940;80;20199;-69
2021/05/22 02:36:03;;;;;;;;;;;;;;;11.73;64.33;100274.27;1730244;80;21173;-69
2021/05/22 02:38:46;;;;;;;;;;;;;;;11.73;64.28;100271.08;1776555;80;20219;-68
2021/05/22 02:41:13;;;;;;;;;;;;;;;11.76;64.35;100277.83;1781116;80;20167;-69
2021/05/22 02:43:43;;;;;;;;;;;;;;;11.80;64.31;100284.92;1781009;80;20123;-69
2021/05/22 02:46:10;;;;;;;;;;;;;;;11.83;64.09;100283.94;1780549;80;20220;-67
2021/05/22 02:48:37;;;;;;;;;;;;;;;11.86;63.85;100290.19;1780316;79;21708;-69
2021/05/22 02:51:06;;;;;;;;;;;;;;;11.85;63.61;100296.62;1778024;80;20206;-69
2021/05/22 02:53:34;;;;;;;;;;;;;;;11.79;63.48;100298.86;1748166;82;20160;-69
2021/05/22 02:56:03;;;;;;;;;;;;;;;11.73;63.49;100296.59;1717862;83;20374;-69
2021/05/22 02:58:29;;;;;;;;;;;;;;;11.70;63.61;100299.73;1732815;81;20220;-67
2021/05/22 03:00:56;;;;;;;;;;;;;;;11.71;63.79;100301.88;1748186;82;21097;-68
2021/05/22 03:03:23;;;;;;;;;;;;;;;11.72;63.92;100308.36;1748570;82;20184;-69
2021/05/22 03:05:49;;;;;;;;;;;;;;;11.72;63.92;100304.87;1748913;81;20169;-71
2021/05/22 03:08:16;;;;;;;;;;;;;;;11.71;63.82;100309.40;1748256;80;20577;-70
2021/05/22 03:10:43;;;;;;;;;;;;;;;11.73;63.94;100314.04;1743692;82;20196;-70
2021/05/22 03:13:10;;;;;;;;;;;;;;;11.76;63.99;100315.43;1749186;81;21055;-70
2021/05/22 03:15:38;;;;;;;;;;;;;;;11.73;64.19;100318.06;1748107;82;20168;-70
2021/05/22 03:18:06;;;;;;;;;;;;;;;11.69;64.37;100319.56;1718295;83;20156;-70
2021/05/22 03:20:32;;;;;;;;;;;;;;;11.65;64.44;100322.40;1719158;83;20211;-69
2021/05/22 03:22:59;;;;;;;;;;;;;;;11.62;64.58;100328.22;1748929;80;20177;-70
2021/05/22 03:25:26;;;;;;;;;;;;;;;11.60;64.70;100333.52;1749728;81;21077;-70
2021/05/22 03:27:52;;;;;;;;;;;;;;;11.61;64.54;100325.77;1756601;80;20251;-71
2021/05/22 03:30:20;;;;;;;;;;;;;;;11.61;64.54;100331.95;1773929;80;20251;-71
2021/05/22 03:32:47;;;;;;;;;;;;;;;11.64;64.43;100332.02;1773207;80;20945;-71
2021/05/22 03:35:13;;;;;;;;;;;;;;;11.71;64.29;100337.59;1773570;81;20194;-70
2021/05/22 03:37:40;;;;;;;;;;;;;;;11.81;64.11;100340.29;1772014;80;21065;-69
2021/05/22 03:40:08;;;;;;;;;;;;;;;11.92;64.03;100337.66;1772650;80;20179;-70
2021/05/22 03:42:35;;;;;;;;;;;;;;;12.20;63.87;100336.23;1773932;80;20616;-70
2021/05/22 03:45:02;;;;;;;;;;;;;;;12.85;63.15;100341.30;1773617;81;20207;-70
2021/05/22 03:47:28;;;;;;;;;;;;;;;13.75;61.49;100334.33;1773171;80;20553;-70
2021/05/22 03:49:55;;;;;;;;;;;;;;;14.69;59.14;100339.26;1775024;80;21096;-68
2021/05/22 03:52:22;;;;;;;;;;;;;;;15.56;57.09;100343.69;1775488;80;20579;-69
2021/05/22 03:54:49;;;;;;;;;;;;;;;16.30;55.04;100344.22;1773563;80;20177;-71
2021/05/22 03:57:16;;;;;;;;;;;;;;;16.91;53.46;100348.50;1770375;80;20298;-72
2021/05/22 03:59:46;;;;;;;;;;;;;;;17.36;51.94;100345.78;1773792;79;20380;-74
2021/05/22 04:02:13;;;;;;;;;;;;;;;17.67;50.71;100348.63;1773335;80;21022;-71
2021/05/22 04:04:40;;;;;;;;;;;;;;;17.63;50.42;100345.61;1773581;80;20195;-72
2021/05/22 04:07:06;;;;;;;;;;;;;;;17.32;50.66;100350.90;1772660;80;20151;-71
2021/05/22 04:09:33;;;;;;;;;;;;;;;17.01;51.25;100354.53;1774171;80;20203;-71
2021/05/22 04:12:00;;;;;;;;;;;;;;;16.64;51.86;100352.08;1764714;80;20670;-70
2021/05/22 04:14:26;;;;;;;;;;;;;;;16.29;52.94;100352.05;1739917;80;21111;-71
2021/05/22 04:16:54;;;;;;;;;;;;;;;16.04;53.62;100360.73;1770559;80;20186;-71
2021/05/22 04:19:22;;;;;;;;;;;;;;;15.79;54.56;100362.63;1772638;81;20175;-71
2021/05/22 04:21:48;;;;;;;;;;;;;;;15.66;55.19;100357.83;1773552;80;20175;-71
2021/05/22 04:24:15;;;;;;;;;;;;;;;15.67;55.67;100359.48;1773289;80;20240;-71
2021/05/22 04:26:42;;;;;;;;;;;;;;;15.74;55.78;100364.70;1771216;80;21044;-71
2021/05/22 04:29:08;;;;;;;;;;;;;;;15.83;55.81;100371.31;1752030;81;20157;-71
2021/05/22 04:31:38;;;;;;;;;;;;;;;15.96;55.93;100374.69;1744866;82;20189;-70
2021/05/22 04:34:06;;;;;;;;;;;;;;;16.24;56.00;100376.35;1749077;82;20355;-70
2021/05/22 04:36:32;;;;;;;;;;;;;;;16.54;54.89;100379.05;1748657;82;20200;-69
2021/05/22 04:39:00;;;;;;;;;;;;;;;16.77;54.37;100379.25;1747328;82;21703;-70
2021/05/22 04:41:26;;;;;;;;;;;;;;;16.94;54.16;100385.88;1744342;82;20352;-70
2021/05/22 04:43:53;;;;;;;;;;;;;;;17.12;53.38;100387.35;1749073;82;20212;-71
2021/05/22 04:46:20;;;;;;;;;;;;;;;17.34;52.50;100385.86;1749743;82;20160;-71
2021/05/22 04:48:47;;;;;;;;;;;;;;;17.56;51.24;100387.05;1747518;82;20168;-69
2021/05/22 04:51:15;;;;;;;;;;;;;;;17.76;50.33;100389.59;1748848;82;21067;-69
2021/05/22 04:53:43;;;;;;;;;;;;;;;17.95;50.40;100396.73;1749460;82;20200;-70
2021/05/22 04:56:09;;;;;;;;;;;;;;;18.13;50.75;100398.94;1749062;82;20180;-70
2021/05/22 04:58:37;;;;;;;;;;;;;;;18.32;51.45;100400.60;1722596;82;20221;-70
2021/05/22 05:01:04;;;;;;;;;;;;;;;18.54;51.10;100404.42;1749221;82;20180;-69
2021/05/22 05:03:31;;;;;;;;;;;;;;;18.75;51.02;100396.29;1749531;80;21084;-69
2021/05/22 05:05:57;;;;;;;;;;;;;;;18.94;50.44;100404.73;1748785;82;20248;-69
2021/05/22 05:08:24;;;;;;;;;;;;;;;19.05;49.18;100405.52;1747712;82;20200;-69
2021/05/22 05:10:51;;;;;;;;;;;;;;;19.15;48.16;100397.35;1749152;82;20184;-69
2021/05/22 05:13:19;;;;;;;;;;;;;;;19.27;47.15;100405.20;1749245;82;20545;-69
2021/05/22 05:15:45;;;;;;;;;;;;;;;19.40;46.95;100407.91;1749105;82;21060;-63
2021/05/22 05:18:12;;;;;;;;;;;;;;;19.51;46.80;100408.15;1746067;80;20585;-62
2021/05/22 05:20:40;;;;;;;;;;;;;;;19.62;46.96;100407.56;1743233;80;20863;-61
2021/05/22 05:23:07;;;;;;;;;;;;;;;19.76;46.99;100406.43;1741978;82;20585;-61
2021/05/22 05:25:34;;;;;;;;;;;;;;;19.91;47.12;100404.22;1748535;82;20184;-63
2021/05/22 05:28:00;;;;;;;;;;;;;;;20.07;46.96;100404.39;1723563;80;21075;-61
2021/05/22 05:30:28;;;;;;;;;;;;;;;20.25;46.58;100408.92;1748713;80;20275;-63
2021/05/22 05:32:55;;;;;;;;;;;;;;;20.40;45.67;100410.16;1748553;82;20177;-62
2021/05/22 05:35:21;;;;;;;;;;;;;;;20.50;43.85;100408.48;1748281;82;20217;-63
2021/05/22 05:37:48;;;;;;;;;;;;;;;20.48;44.17;100410.94;1747314;80;20273;-62
2021/05/22 05:40:19;;;;;;;;;;;;;;;20.53;45.08;100413.37;1747913;82;21081;-62
2021/05/22 05:42:44;;;;;;;;;;;;;;;20.62;45.91;100407.01;1747939;82;20569;-61
2021/05/22 05:45:12;;;;;;;;;;;;;;;20.73;45.69;100398.25;1748805;82;20216;-62
2021/05/22 05:47:39;;;;;;;;;;;;;;;20.86;45.87;100402.21;1746905;82;20271;-62
2021/05/22 05:50:07;;;;;;;;;;;;;;;20.99;45.53;100404.30;1748825;82;20232;-64
2021/05/22 05:52:34;;;;;;;;;;;;;;;21.15;44.47;100400.84;1748590;82;21076;-63
2021/05/22 05:55:00;;;;;;;;;;;;;;;21.26;43.23;100398.01;1748569;82;20180;-64
2021/05/22 05:57:28;;;;;;;;;;;;;;;21.37;42.52;100398.73;1748073;80;20196;-65
2021/05/22 05:59:55;;;;;;;;;;;;;;;21.49;41.34;100396.41;1748379;82;20204;-64
2021/05/22 06:02:22;;;;;;;;;;;;;;;21.61;38.08;100396.02;1722760;82;20188;-64
2021/05/22 06:04:51;;;;;;;;;;;;;;;21.73;39.02;100394.23;1749112;80;21044;-65
2021/05/22 06:07:19;;;;;;;;;;;;;;;21.83;38.70;100402.28;1747699;82;20193;-64
2021/05/22 06:09:47;;;;;;;;;;;;;;;21.90;39.41;100395.12;1749022;82;20172;-65
2021/05/22 06:12:14;;;;;;;;;;;;;;;22.01;40.56;100400.67;1722503;82;20160;-64
2021/05/22 06:14:44;;;;;;;;;;;;;;;22.09;40.98;100404.13;1748576;82;20168;-64
2021/05/22 06:17:09;;;;;;;;;;;;;;;22.12;40.46;100402.73;1748370;80;21252;-62
2021/05/22 06:19:35;;;;;;;;;;;;;;;22.15;40.82;100401.58;1748910;82;20168;-64
2021/05/22 06:22:02;;;;;;;;;;;;;;;22.17;41.88;100407.56;1749317;82;20228;-63
2021/05/22 06:24:29;;;;;;;;;;;;;;;22.26;40.67;100405.52;1749332;82;20177;-63
2021/05/22 06:26:57;;;;;;;;;;;;;;;22.36;39.43;100405.40;1750728;80;20212;-62
2021/05/22 06:29:24;;;;;;;;;;;;;;;22.46;39.46;100401.71;1749322;80;21100;-64
2021/05/22 06:31:51;;;;;;;;;;;;;;;22.58;39.47;100408.88;1749132;82;20200;-65
2021/05/22 06:34:17;;;;;;;;;;;;;;;22.72;39.07;100407.02;1748536;82;20216;-63
2021/05/22 06:36:44;;;;;;;;;;;;;;;22.84;39.30;100402.44;1747101;82;20253;-64
2021/05/22 06:39:11;;;;;;;;;;;;;;;22.97;39.85;100398.66;1748595;82;20181;-62
2021/05/22 06:41:38;;;;;;;;;;;;;;;23.08;37.91;100398.17;1749025;82;21069;-60
2021/05/22 06:44:06;;;;;;;;;;;;;;;23.17;35.65;100403.78;1748963;82;20592;-62
2021/05/22 06:49:07;;;;;;;;;;;;;;;23.35;39.76;100410.84;1746007;82;20419;-60
2021/05/22 06:51:34;;;;;;;;;;;;;;;23.39;38.44;100411.30;1749353;82;20172;-61
2021/05/22 06:54:00;;;;;;;;;;;;;;;23.33;44.13;100408.41;1747810;82;21066;-60
2021/05/22 06:56:27;;;;;;;;;;;;;;;23.18;45.23;100408.16;1749163;80;20160;-61
2021/05/22 06:58:54;;;;;;;;;;;;;;;23.03;44.18;100413.88;1745088;81;20537;-61
2021/05/22 07:01:22;;;;;;;;;;;;;;;22.90;42.20;100408.63;1749195;82;20172;-61
2021/05/22 07:03:49;;;;;;;;;;;;;;;22.77;42.69;100417.61;1749407;80;20235;-60
2021/05/22 07:06:15;;;;;;;;;;;;;;;22.60;43.28;100412.67;1749159;82;21078;-61
2021/05/22 07:08:42;;;;;;;;;;;;;;;22.45;40.45;100415.09;1747322;82;20208;-61
2021/05/22 07:11:09;;;;;;;;;;;;;;;22.31;40.21;100416.38;1748579;82;20592;-60
2021/05/22 07:13:36;;;;;;;;;;;;;;;22.19;39.14;100425.02;1743180;81;20308;-60
2021/05/22 07:16:04;;;;;;;;;;;;;;;22.05;39.18;100427.64;1748841;82;20164;-63
2021/05/22 07:18:31;;;;;;;;;;;;;;;21.96;39.66;100423.95;1720184;82;21015;-59
2021/05/22 07:20:58;;;;;;;;;;;;;;;21.90;39.96;100425.94;1749119;81;20156;-61
2021/05/22 07:23:24;;;;;;;;;;;;;;;21.86;39.66;100420.80;1748126;82;20549;-61
2021/05/22 07:25:51;;;;;;;;;;;;;;;21.82;40.51;100417.86;1748462;82;20546;-61
2021/05/22 07:28:19;;;;;;;;;;;;;;;21.80;38.35;100416.52;1751144;80;20184;-59
2021/05/22 07:30:45;;;;;;;;;;;;;;;21.76;41.05;100419.03;1775384;80;21665;-59
2021/05/22 07:33:14;;;;;;;;;;;;;;;21.72;37.38;100417.98;1736960;81;20195;-61
2021/05/22 07:35:41;;;;;;;;;;;;;;;21.68;37.14;100419.66;1764728;81;20180;-62
2021/05/22 07:38:07;;;;;;;;;;;;;;;21.62;37.51;100420.27;1764661;81;20148;-60
2021/05/22 07:40:34;;;;;;;;;;;;;;;21.61;39.25;100419.20;1765219;81;20573;-60
2021/05/22 07:43:02;;;;;;;;;;;;;;;21.61;38.36;100416.47;1764844;81;20183;-60
2021/05/22 07:45:30;;;;;;;;;;;;;;;21.61;35.24;100411.85;1765041;81;20199;-60
2021/05/22 07:47:56;;;;;;;;;;;;;;;21.61;35.53;100413.75;1760276;81;20220;-59
2021/05/22 07:50:23;;;;;;;;;;;;;;;21.59;34.67;100408.58;1765476;81;20179;-61
2021/05/22 07:52:50;;;;;;;;;;;;;;;21.59;36.15;100403.13;1764961;81;20211;-59
2021/05/22 07:55:17;;;;;;;;;;;;;;;21.58;35.82;100404.22;1765279;79;21106;-60
2021/05/22 07:57:44;;;;;;;;;;;;;;;21.59;35.52;100403.13;1763320;80;20187;-60
2021/05/22 08:00:12;;;;;;;;;;;;;;;21.61;34.98;100400.11;1764904;79;20309;-60
2021/05/22 08:02:39;;;;;;;;;;;;;;;21.61;34.50;100397.38;1765080;81;20196;-59
2021/05/22 08:05:06;;;;;;;;;;;;;;;21.59;34.64;100397.67;1765021;79;20183;-61
2021/05/22 08:07:34;;;;;;;;;;;;;;;21.58;33.95;100395.23;1764494;80;21622;-59
2021/05/22 08:10:01;;;;;;;;;;;;;;;21.53;34.57;100396.92;1764735;81;20180;-64
2021/05/22 08:12:27;;;;;;;;;;;;;;;21.52;35.20;100386.30;1765637;81;20572;-60
2021/05/22 08:14:54;;;;;;;;;;;;;;;21.55;34.76;100389.01;1765334;81;20172;-60
2021/05/22 08:17:22;;;;;;;;;;;;;;;21.57;34.45;100388.98;1757161;80;20200;-60
2021/05/22 08:19:48;;;;;;;;;;;;;;;21.59;32.17;100390.05;1764889;81;21675;-60
2021/05/22 08:22:15;;;;;;;;;;;;;;;21.56;32.24;100393.36;1764880;81;20159;-61
2021/05/22 08:24:42;;;;;;;;;;;;;;;21.51;33.08;100387.42;1764427;81;20164;-63
2021/05/22 08:27:08;;;;;;;;;;;;;;;21.50;33.10;100391.22;1742803;81;20232;-61
2021/05/22 08:29:35;;;;;;;;;;;;;;;21.52;33.99;100398.05;1765013;79;20187;-64
2021/05/22 08:32:03;;;;;;;;;;;;;;;21.56;35.25;100395.53;1767219;80;21046;-59
2021/05/22 08:34:30;;;;;;;;;;;;;;;21.60;34.06;100390.30;1788573;80;20175;-60
2021/05/22 08:36:57;;;;;;;;;;;;;;;21.65;34.08;100387.52;1785653;80;20222;-60
2021/05/22 08:39:23;;;;;;;;;;;;;;;21.65;33.19;100391.05;1788607;80;20190;-61
2021/05/22 08:41:50;;;;;;;;;;;;;;;21.63;33.33;100389.17;1788725;80;20521;-60
2021/05/22 08:44:17;;;;;;;;;;;;;;;21.62;32.95;100397.66;1785394;80;21094;-60
2021/05/22 08:46:46;;;;;;;;;;;;;;;21.58;32.92;100398.77;1788133;80;20159;-61
2021/05/22 08:49:14;;;;;;;;;;;;;;;21.58;32.82;100388.42;1789088;80;20563;-61
2021/05/22 08:51:42;;;;;;;;;;;;;;;21.59;32.63;100381.31;1789080;80;20119;-61
2021/05/22 08:54:08;;;;;;;;;;;;;;;21.59;30.75;100383.23;1785981;80;20135;-63
2021/05/22 08:56:35;;;;;;;;;;;;;;;21.57;31.24;100375.87;1748698;81;21747;-59
2021/05/22 08:59:02;;;;;;;;;;;;;;;21.58;32.63;100376.95;1748990;82;20196;-60
2021/05/22 09:01:29;;;;;;;;;;;;;;;21.61;31.94;100375.56;1748750;81;20164;-62
2021/05/22 09:03:56;;;;;;;;;;;;;;;21.61;31.31;100373.67;1749913;81;20184;-59
2021/05/22 09:06:23;;;;;;;;;;;;;;;21.63;31.09;100376.09;1748491;82;20809;-60
2021/05/22 09:09:00;;;;;;;;;;;;;;;21.62;29.60;100378.56;1749455;81;21082;-60
2021/05/22 09:11:26;;;;;;;;;;;;;;;21.56;31.33;100381.89;1744802;81;20148;-59
2021/05/22 09:13:53;;;;;;;;;;;;;;;21.56;30.38;100380.53;1746061;82;20193;-61
2021/05/22 09:16:21;;;;;;;;;;;;;;;21.56;30.37;100380.53;1748633;81;20177;-60
2021/05/22 09:18:48;;;;;;;;;;;;;;;21.56;29.64;100373.72;1742145;82;20173;-61
2021/05/22 09:21:14;;;;;;;;;;;;;;;21.53;28.67;100377.03;1749749;80;21086;-61
2021/05/22 09:23:46;;;;;;;;;;;;;;;21.47;28.67;100374.88;1748737;81;20188;-59
2021/05/22 09:26:14;;;;;;;;;;;;;;;21.40;28.54;100373.61;1749054;82;20202;-60
2021/05/22 09:28:50;;;;;;;;;;;;;;;21.30;28.51;100363.09;1749091;81;20260;-60
2021/05/22 09:31:18;;;;;;;;;;;;;;;21.27;28.18;100367.73;1744081;82;20168;-60
2021/05/22 09:33:45;;;;;;;;;;;;;;;21.16;29.03;100357.50;1748431;82;21020;-60
2021/05/22 09:36:13;;;;;;;;;;;;;;;21.11;29.02;100354.85;1748710;81;20652;-60
2021/05/22 09:38:43;;;;;;;;;;;;;;;21.08;28.83;100351.34;1746719;82;20244;-60
2021/05/22 09:41:26;;;;;;;;;;;;;;;21.08;30.25;100346.42;1748522;82;20192;-60
2021/05/22 09:44:11;;;;;;;;;;;;;;;21.10;29.49;100340.16;1723704;82;20199;-60
2021/05/22 09:46:48;;;;;;;;;;;;;;;21.13;29.69;100341.73;1746934;82;21060;-60
2021/05/22 09:49:22;;;;;;;;;;;;;;;21.18;29.58;100336.77;1786820;80;20207;-60
2021/05/22 09:52:10;;;;;;;;;;;;;;;21.16;29.01;100334.34;1789330;80;20223;-60
2021/05/22 09:54:57;;;;;;;;;;;;;;;21.10;29.99;100336.87;1789165;80;20151;-59
2021/05/22 09:57:37;;;;;;;;;;;;;;;21.12;30.43;100336.02;1788965;80;20163;-59
2021/05/22 10:00:15;;;;;;;;;;;;;;;21.17;29.97;100333.25;1788455;80;21707;-59
2021/05/22 10:02:46;;;;;;;;;;;;;;;21.21;29.55;100323.92;1788480;80;20191;-59
2021/05/22 10:05:16;;;;;;;;;;;;;;;21.25;30.24;100333.72;1788854;78;20561;-59
2021/05/22 10:07:44;;;;;;;;;;;;;;;21.29;30.07;100335.56;1782262;80;20219;-59
2021/05/22 10:10:12;;;;;;;;;;;;;;;21.29;29.29;100330.64;1788769;78;20119;-59
2021/05/22 10:12:40;;;;;;;;;;;;;;;21.25;29.51;100329.63;1788780;80;21088;-59
2021/05/22 10:15:09;;;;;;;;;;;;;;;21.21;29.76;100326.66;1788896;80;20142;-60
2021/05/22 10:17:36;;;;;;;;;;;;;;;21.22;30.01;100331.01;1782941;80;20550;-60
2021/05/22 10:20:05;;;;;;;;;;;;;;;21.24;29.57;100326.62;1787966;80;20187;-59
2021/05/22 10:22:33;;;;;;;;;;;;;;;21.21;29.37;100320.40;1788709;80;20174;-60
2021/05/22 10:25:01;;;;;;;;;;;;;;;21.17;29.64;100313.34;1788615;80;21081;-59
2021/05/22 10:27:28;;;;;;;;;;;;;;;21.15;29.69;100316.91;1788081;80;20116;-60
2021/05/22 10:29:54;;;;;;;;;;;;;;;21.11;29.48;100316.70;1787839;80;20139;-60
2021/05/22 10:32:23;;;;;;;;;;;;;;;21.06;29.17;100315.37;1784276;80;20159;-60
2021/05/22 10:34:50;;;;;;;;;;;;;;;20.96;29.90;100308.12;1781251;80;20230;-59
2021/05/22 10:37:38;;;;;;;;;;;;;;;20.95;30.20;100308.41;1779322;80;21094;-60
2021/05/22 10:40:05;;;;;;;;;;;;;;;20.97;29.69;100309.75;1782688;80;20504;-60
2021/05/22 10:42:36;;;;;;;;;;;;;;;20.97;29.88;100297.48;1784086;80;20329;-59
2021/05/22 10:45:29;;;;;;;;;;;;;;;20.98;30.79;100300.48;1783423;80;20187;-60
2021/05/22 10:47:59;;;;;;;;;;;;;;;21.01;30.14;100303.19;1783009;80;20179;-59
2021/05/22 10:50:42;;;;;;;;;;;;;;;21.05;29.89;100293.30;1784512;80;21666;-60
2021/05/22 10:53:33;;;;;;;;;;;;;;;21.04;30.17;100291.70;1779346;80;20205;-60
2021/05/22 10:56:05;;;;;;;;;;;;;;;21.02;30.47;100284.92;1784432;80;20144;-60
2021/05/22 10:58:33;;;;;;;;;;;;;;;21.06;30.37;100285.41;1781650;80;20143;-61
2021/05/22 11:01:29;;;;;;;;;;;;;;;21.08;29.66;100293.28;1784631;80;20151;-60
2021/05/22 11:04:10;;;;;;;;;;;;;;;21.08;29.45;100284.58;1783048;80;21569;-60
2021/05/22 11:06:53;;;;;;;;;;;;;;;21.08;29.11;100276.94;1784637;80;20152;-60
2021/05/22 11:09:34;;;;;;;;;;;;;;;21.04;28.99;100272.63;1782828;80;20195;-58
2021/05/22 11:12:04;;;;;;;;;;;;;;;20.98;29.35;100265.62;1783039;80;20131;-59
2021/05/22 11:14:36;;;;;;;;;;;;;;;20.94;30.18;100261.85;1782984;80;20151;-59
2021/05/22 11:17:29;;;;;;;;;;;;;;;20.93;29.81;100262.38;1777507;80;21134;-60
2021/05/22 11:20:05;;;;;;;;;;;;;;;20.91;29.64;100255.62;1779800;80;20179;-61
2021/05/22 11:22:52;;;;;;;;;;;;;;;20.92;29.32;100256.69;1784248;80;20179;-58
2021/05/22 11:25:18;;;;;;;;;;;;;;;20.92;28.32;100264.87;1780755;80;20724;-58
2021/05/22 11:27:52;;;;;;;;;;;;;;;20.88;28.33;100261.66;1784175;80;20160;-58
2021/05/22 11:30:24;;;;;;;;;;;;;;;20.82;28.46;100260.33;1783221;80;21056;-59
2021/05/22 11:32:58;;;;;;;;;;;;;;;20.76;28.39;100270.20;1780440;80;20211;-59
2021/05/22 11:35:29;;;;;;;;;;;;;;;20.72;28.05;100257.72;1780931;80;20505;-57
2021/05/22 11:38:18;;;;;;;;;;;;;;;20.61;28.59;100247.47;1777676;79;20168;-57
2021/05/22 11:40:48;;;;;;;;;;;;;;;20.57;28.34;100255.14;1780852;80;20167;-59
2021/05/22 11:43:18;;;;;;;;;;;;;;;20.55;29.28;100250.52;1780943;80;21109;-60
2021/05/22 11:45:48;;;;;;;;;;;;;;;20.57;29.85;100251.86;1780636;80;20172;-58
2021/05/22 11:48:24;;;;;;;;;;;;;;;20.63;30.06;100250.70;1778141;80;20160;-58
2021/05/22 11:50:51;;;;;;;;;;;;;;;20.68;29.19;100258.59;1776838;80;20160;-58
2021/05/22 11:53:18;;;;;;;;;;;;;;;20.65;29.78;100253.93;1778287;80;20543;-57
2021/05/22 11:55:54;;;;;;;;;;;;;;;20.66;29.41;100256.16;1777554;80;21102;-60
2021/05/22 11:58:21;;;;;;;;;;;;;;;20.66;29.64;100254.80;1779627;80;20151;-60
2021/05/22 12:00:49;;;;;;;;;;;;;;;20.69;29.39;100258.86;1780626;80;20173;-57
2021/05/22 12:03:25;;;;;;;;;;;;;;;20.65;30.11;100247.13;1780560;80;20159;-58
2021/05/22 12:05:53;;;;;;;;;;;;;;;20.67;29.56;100249.63;1777651;80;20127;-57
2021/05/22 12:08:23;;;;;;;;;;;;;;;20.66;29.12;100247.98;1777198;79;21119;-58
2021/05/22 12:10:50;;;;;;;;;;;;;;;20.64;29.44;100242.80;1775488;80;20587;-58
2021/05/22 12:13:18;;;;;;;;;;;;;;;20.59;29.54;100240.11;1781013;80;20187;-59
2021/05/22 12:15:45;;;;;;;;;;;;;;;20.57;29.52;100250.50;1780870;80;20151;-59
2021/05/22 12:18:15;;;;;;;;;;;;;;;20.54;28.94;100248.35;1779142;80;20158;-58
2021/05/22 12:20:50;;;;;;;;;;;;;;;20.53;29.20;100237.75;1781154;80;21095;-58
2021/05/22 12:23:29;;;;;;;;;;;;;;;20.55;28.94;100232.25;1780891;80;20593;-57
2021/05/22 12:25:57;;;;;;;;;;;;;;;20.57;29.47;100232.80;1780781;80;20476;-58
2021/05/22 12:28:24;;;;;;;;;;;;;;;20.62;29.69;100222.39;1777160;79;20191;-58
2021/05/22 12:31:00;;;;;;;;;;;;;;;20.67;30.06;100232.45;1780945;80;20156;-58
2021/05/22 12:33:28;;;;;;;;;;;;;;;20.69;29.85;100233.79;1779509;80;21035;-57
2021/05/22 12:36:06;;;;;;;;;;;;;;;20.66;29.35;100222.12;1779450;80;20155;-58
2021/05/22 12:38:45;;;;;;;;;;;;;;;20.66;30.25;100219.39;1777559;80;20214;-60
2021/05/22 12:41:13;;;;;;;;;;;;;;;20.68;28.87;100231.36;1781016;80;20183;-57
2021/05/22 12:43:50;;;;;;;;;;;;;;;20.66;28.57;100216.67;1781025;80;20193;-60
2021/05/22 12:46:37;;;;;;;;;;;;;;;20.62;28.64;100220.47;1776987;79;21110;-59
2021/05/22 12:49:13;;;;;;;;;;;;;;;20.64;28.82;100220.19;1772621;80;20186;-57